AFR36A LFPB-LIME
Flight info
| Callsign | AFR36A |
|---|---|
| Flight time | N/A |
| Altitude | 31000 |
| Route | BUBLI UG42 LUVAL DCT DEVDI DCT ODINA |
| Aircraft | A20N/M-SDE2E3FGHIRWXY/LB1 |
Departure
| Time | 2026-04-21 21:24 |
|---|---|
| Airport | Paris-Le Bourget International Airport (LFPB) |
Arrival
| Time | N/A |
|---|---|
| Airport | Il Caravaggio International Airport (LIME) |
| Time | Latitude | Longitude | Altitude | Speed | Heading |
|---|---|---|---|---|---|
| 2026-04-21 20:33 | 48.95408 | 2.43583 | 133 ft | 0 kts | 342° |
| 2026-04-21 21:07 | 48.95421 | 2.43573 | 132 ft | 3 kts | 306° |
| 2026-04-21 21:07 | 48.95432 | 2.43538 | 131 ft | 6 kts | 292° |
| 2026-04-21 21:07 | 48.95496 | 2.43499 | 129 ft | 10 kts | 20° |
| 2026-04-21 21:08 | 48.95540 | 2.43532 | 129 ft | 10 kts | 25° |
| 2026-04-21 21:08 | 48.95634 | 2.43597 | 131 ft | 11 kts | 24° |
| 2026-04-21 21:08 | 48.95705 | 2.43646 | 132 ft | 11 kts | 25° |
| 2026-04-21 21:08 | 48.95781 | 2.43669 | 132 ft | 12 kts | 333° |
| 2026-04-21 21:09 | 48.95802 | 2.43641 | 132 ft | 12 kts | 306° |
| 2026-04-21 21:09 | 48.95870 | 2.43427 | 133 ft | 14 kts | 295° |
| 2026-04-21 21:09 | 48.95912 | 2.43292 | 135 ft | 13 kts | 295° |
| 2026-04-21 21:09 | 48.95949 | 2.43160 | 137 ft | 13 kts | 294° |
| 2026-04-21 21:10 | 48.95999 | 2.43047 | 139 ft | 12 kts | 307° |
| 2026-04-21 21:10 | 48.96035 | 2.42977 | 140 ft | 12 kts | 308° |
| 2026-04-21 21:10 | 48.96106 | 2.42846 | 143 ft | 11 kts | 309° |
| 2026-04-21 21:10 | 48.96140 | 2.42785 | 144 ft | 11 kts | 309° |
| 2026-04-21 21:11 | 48.96207 | 2.42663 | 146 ft | 11 kts | 309° |
| 2026-04-21 21:11 | 48.96253 | 2.42563 | 147 ft | 11 kts | 295° |
| 2026-04-21 21:11 | 48.96269 | 2.42433 | 147 ft | 13 kts | 269° |
| 2026-04-21 21:11 | 48.96263 | 2.42283 | 145 ft | 14 kts | 265° |
| 2026-04-21 21:12 | 48.96263 | 2.42276 | 145 ft | 0 kts | 266° |
| 2026-04-21 21:22 | 48.96260 | 2.42206 | 144 ft | 10 kts | 266° |
| 2026-04-21 21:23 | 48.96288 | 2.42104 | 142 ft | 12 kts | 307° |
| 2026-04-21 21:23 | 48.96366 | 2.42066 | 142 ft | 11 kts | 54° |
| 2026-04-21 21:23 | 48.96371 | 2.42102 | 143 ft | 2 kts | 95° |
| 2026-04-21 21:23 | 48.96371 | 2.42111 | 144 ft | 0 kts | 88° |
| 2026-04-21 21:24 | 48.96373 | 2.42160 | 145 ft | 30 kts | 85° |
| 2026-04-21 21:24 | 48.96418 | 2.42947 | 152 ft | 115 kts | 84° |
| 2026-04-21 21:24 | 48.96505 | 2.44480 | 319 ft | 166 kts | 83° |
| 2026-04-21 21:24 | 48.96598 | 2.46221 | 1290 ft | 165 kts | 84° |
| 2026-04-21 21:25 | 48.96679 | 2.47852 | 2398 ft | 161 kts | 85° |
| 2026-04-21 21:25 | 48.96766 | 2.49574 | 3184 ft | 175 kts | 84° |
| 2026-04-21 21:25 | 48.96869 | 2.51562 | 3669 ft | 204 kts | 84° |
| 2026-04-21 21:25 | 48.96938 | 2.53815 | 4437 ft | 221 kts | 89° |
| 2026-04-21 21:26 | 48.96863 | 2.56188 | 5257 ft | 235 kts | 94° |
| 2026-04-21 21:26 | 48.96623 | 2.58646 | 6268 ft | 241 kts | 98° |
| 2026-04-21 21:26 | 48.96311 | 2.61141 | 7270 ft | 246 kts | 96° |
| 2026-04-21 21:26 | 48.96097 | 2.63752 | 8210 ft | 252 kts | 93° |
| 2026-04-21 21:27 | 48.95911 | 2.66399 | 9076 ft | 260 kts | 94° |
| 2026-04-21 21:27 | 48.95721 | 2.69160 | 9938 ft | 268 kts | 93° |
| 2026-04-21 21:27 | 48.95526 | 2.72008 | 10669 ft | 280 kts | 93° |
| 2026-04-21 21:27 | 48.95240 | 2.75032 | 11204 ft | 299 kts | 98° |
| 2026-04-21 21:28 | 48.94834 | 2.78204 | 11684 ft | 318 kts | 99° |
| 2026-04-21 21:28 | 48.94385 | 2.81607 | 12175 ft | 336 kts | 98° |
| 2026-04-21 21:28 | 48.93463 | 2.88748 | 13611 ft | 353 kts | 98° |
| 2026-04-21 21:29 | 48.93001 | 2.92388 | 14383 ft | 360 kts | 98° |
| 2026-04-21 21:29 | 48.92525 | 2.96176 | 15124 ft | 366 kts | 98° |
| 2026-04-21 21:29 | 48.92048 | 2.99990 | 15805 ft | 372 kts | 97° |
| 2026-04-21 21:29 | 48.91565 | 3.03851 | 16486 ft | 379 kts | 97° |
| 2026-04-21 21:30 | 48.91237 | 3.06475 | 16946 ft | 383 kts | 97° |
| 2026-04-21 21:30 | 48.90571 | 3.11782 | 17805 ft | 390 kts | 97° |
| 2026-04-21 21:30 | 48.90060 | 3.15838 | 18499 ft | 387 kts | 97° |
| 2026-04-21 21:31 | 48.87965 | 3.32378 | 18952 ft | 392 kts | 97° |
| 2026-04-21 21:31 | 48.87448 | 3.36436 | 18965 ft | 392 kts | 97° |
| 2026-04-21 21:32 | 48.86926 | 3.40520 | 18970 ft | 391 kts | 97° |
| 2026-04-21 21:32 | 48.86408 | 3.44560 | 19010 ft | 394 kts | 97° |
| 2026-04-21 21:32 | 48.85880 | 3.48666 | 19492 ft | 400 kts | 97° |
| 2026-04-21 21:32 | 48.85348 | 3.52768 | 20147 ft | 403 kts | 96° |
| 2026-04-21 21:33 | 48.84802 | 3.56976 | 20701 ft | 410 kts | 96° |
| 2026-04-21 21:33 | 48.84172 | 3.61840 | 21320 ft | 418 kts | 95° |
| 2026-04-21 21:33 | 48.83610 | 3.66169 | 21877 ft | 423 kts | 96° |
| 2026-04-21 21:33 | 48.83041 | 3.70526 | 22396 ft | 429 kts | 96° |
| 2026-04-21 21:34 | 48.82461 | 3.74958 | 23067 ft | 431 kts | 95° |
| 2026-04-21 21:34 | 48.81871 | 3.79451 | 23614 ft | 436 kts | 95° |
| 2026-04-21 21:34 | 48.81278 | 3.83973 | 24134 ft | 442 kts | 95° |
| 2026-04-21 21:34 | 48.80675 | 3.88557 | 24697 ft | 447 kts | 95° |
| 2026-04-21 21:35 | 48.80069 | 3.93168 | 25248 ft | 451 kts | 95° |
| 2026-04-21 21:35 | 48.79451 | 3.97843 | 25791 ft | 456 kts | 96° |
| 2026-04-21 21:35 | 48.78828 | 4.02515 | 26296 ft | 462 kts | 96° |
| 2026-04-21 21:35 | 48.78182 | 4.07317 | 26804 ft | 467 kts | 96° |
| 2026-04-21 21:36 | 48.77426 | 4.12125 | 27307 ft | 475 kts | 103° |
| 2026-04-21 21:36 | 48.76176 | 4.16802 | 27802 ft | 484 kts | 114° |
| 2026-04-21 21:36 | 48.74428 | 4.21154 | 28290 ft | 490 kts | 123° |
| 2026-04-21 21:36 | 48.72452 | 4.25351 | 28880 ft | 490 kts | 125° |
| 2026-04-21 21:37 | 48.70443 | 4.29482 | 29474 ft | 489 kts | 125° |
| 2026-04-21 21:37 | 48.66437 | 4.37795 | 30264 ft | 497 kts | 125° |
| 2026-04-21 21:37 | 48.64405 | 4.42059 | 30672 ft | 499 kts | 125° |
| 2026-04-21 21:38 | 48.62380 | 4.46321 | 31033 ft | 500 kts | 124° |
| 2026-04-21 21:38 | 48.58356 | 4.54815 | 31121 ft | 500 kts | 124° |
| 2026-04-21 21:39 | 48.54310 | 4.63346 | 31124 ft | 501 kts | 124° |
| 2026-04-21 21:39 | 48.50257 | 4.71886 | 31130 ft | 501 kts | 125° |
| 2026-04-21 21:40 | 48.46350 | 4.80092 | 31126 ft | 502 kts | 125° |
| 2026-04-21 21:40 | 48.44998 | 4.82914 | 31111 ft | 501 kts | 125° |
| 2026-04-21 21:41 | 48.38389 | 4.96691 | 31112 ft | 503 kts | 125° |
| 2026-04-21 21:41 | 48.34303 | 5.05171 | 31105 ft | 503 kts | 125° |
| 2026-04-21 21:42 | 48.30467 | 5.13880 | 31102 ft | 501 kts | 117° |
| 2026-04-21 21:42 | 48.27536 | 5.23316 | 31094 ft | 497 kts | 106° |
| 2026-04-21 21:43 | 48.25414 | 5.32885 | 31101 ft | 497 kts | 103° |
| 2026-04-21 21:43 | 48.23307 | 5.42655 | 31088 ft | 497 kts | 104° |
| 2026-04-21 21:44 | 48.21141 | 5.52505 | 31077 ft | 497 kts | 104° |
| 2026-04-21 21:44 | 48.18974 | 5.62231 | 31088 ft | 497 kts | 104° |
| 2026-04-21 21:45 | 48.16767 | 5.72063 | 31081 ft | 497 kts | 105° |